ADDS METAR Data INFO
IDs: Format: Raw Decoded Include TAF

Data at: 1201 UTC 21 Jun 2018

KHBR 211153Z AUTO 02009KT 7SM CLR 22/17 A3001 RMK AO2 SLP143 70002 T02170172 10233 20189 53019
KHBR 211053Z AUTO 31004KT 7SM CLR 19/16 A2999 RMK AO2 SLP136 T01890161
KHBR 210953Z AUTO 34004KT 9SM CLR 21/17 A2996 RMK AO2 SLP126 T02110172
KHBR 210853Z AUTO 33006KT 9SM CLR 20/17 A2995 RMK AO2 SLP124 T02000167 55003
KHBR 210753Z AUTO 22006KT 7SM CLR 22/17 A2995 RMK AO2 SLP121 T02220167
KHBR 210653Z AUTO 33004KT 9SM CLR 22/17 A2996 RMK AO2 SLP125 T02220167
KHBR 210553Z AUTO 33004KT 10SM CLR 23/17 A2996 RMK AO2 SLP127 T02280167 10317 20222 403330194 51008
KHBR 210453Z AUTO 00000KT 10SM CLR 25/17 A2996 RMK AO2 SLP125 T02500167
KHBR 210353Z AUTO 11004KT 9SM CLR 25/16 A2995 RMK AO2 SLP122 T02500161
KHBR 210253Z AUTO 35004KT 10SM CLR 27/17 A2994 RMK AO2 SLP118 T02670167 53018
KHBR 210153Z AUTO 33007KT 10SM CLR 28/17 A2992 RMK AO2 SLP113 T02830167
KHBR 210053Z AUTO 34010KT 10SM CLR 31/17 A2989 RMK AO2 SLP104 T03110167
KHBR 202353Z AUTO 01010KT 10SM CLR 31/17 A2988 RMK AO2 SLP099 T03060167 10333 20300 56009
KHBR 202253Z AUTO 33011KT 10SM FEW055 32/17 A2988 RMK AO2 SLP098 T03170167
KHBR 202153Z AUTO 34007KT 10SM FEW055 FEW070 32/18 A2989 RMK AO2 SLP101 T03170178
KHBR 202053Z AUTO 35011KT 10SM BKN060 OVC070 32/18 A2991 RMK AO2 SLP107 T03220178 57013
KHBR 201953Z AUTO 34005KT 10SM FEW047 32/18 A2992 RMK AO2 SLP111 T03170178
KHBR 201853Z AUTO 01007KT 10SM CLR 31/17 A2993 RMK AO2 SLP116 T03060167
KHBR 201753Z AUTO VRB04KT 10SM CLR 30/16 A2995 RMK AO2 SLP120 60002 T03000161 10306 20194 55006
KHBR 201653Z AUTO 12005KT 10SM CLR 27/16 A2993 RMK AO2 SLP115 T02720161
KHBR 201553Z AUTO 15010KT 10SM FEW027 SCT100 SCT120 24/17 A2992 RMK AO2 RAB22E53 SLP113 P0000 T02440172
KHBR 201453Z AUTO 06008KT 10SM CLR 23/17 A2997 RMK AO2 SLP129 60002 T02330172 58004
KHBR 201353Z AUTO 07012KT 10SM SCT065 22/17 A2996 RMK AO2 SLP128 T02170172
KHBR 201253Z AUTO 06011KT 10SM BKN046 OVC055 21/17 A3000 RMK AO2 PK WND 01028/1154 RAE21 SLP139 P0002 T02060172 $
KHBR 201203Z AUTO 04019G28KT 6SM -RA BR FEW022 OVC031 19/17 A2998 RMK AO2 PK WND 01028/1154 P0002 T01940172 $
KHBR 201153Z AUTO 02021G31KT 9SM -RA SCT022 OVC029 21/17 A2998 RMK AO2 PK WND 01036/1130 RAB40 SLP133 P0000 60000 T02060167 10250 20206 53018 $
KHBR 201140Z AUTO 02024G32KT 10SM -RA BKN024 OVC055 21/17 A2998 RMK AO2 PK WND 01036/1130 RAB40 P0000 T02110167 $
KHBR 201053Z AUTO 11003KT 9SM FEW021 BKN040 OVC055 24/21 A2995 RMK AO2 SLP122 T02390206 $
KHBR 201045Z AUTO 12004KT 9SM FEW021 OVC035 24/21 A2995 RMK AO2 T02390206 $
KHBR 200953Z AUTO 01003KT 9SM OVC022 24/21 A2995 RMK AO2 SLP120 T02390206 $
KHBR 200853Z AUTO 12003KT 10SM OVC022 23/20 A2993 RMK AO2 SLP113 T02330200 53014 $
KHBR 200839Z AUTO 13004KT 10SM BKN022 23/20 A2993 RMK AO2 PRESRR T02330200 $
KHBR 200753Z AUTO 18008KT 10SM CLR 23/20 A2988 RMK AO2 SLP096 T02330200 $
KHBR 200653Z AUTO 17017KT 10SM CLR 24/20 A2988 RMK AO2 SLP097 T02390200 $
KHBR 200553Z AUTO 16014KT 10SM CLR 24/20 A2988 RMK AO2 SLP099 T02440200 10311 20244 403280228 58000 $
KHBR 200453Z AUTO 17015KT 10SM CLR 26/19 A2990 RMK AO2 SLP105 T02560194 $
KHBR 200353Z AUTO 16011KT 10SM CLR 26/19 A2991 RMK AO2 SLP107 T02610189 $
KHBR 200253Z AUTO 15013KT 10SM FEW049 28/18 A2989 RMK AO2 SLP099 T02780183 53004 $
KHBR 200153Z AUTO 16012KT 10SM CLR 29/18 A2987 RMK AO2 SLP097 T02890178 $
KHBR 200053Z AUTO 16014KT 10SM CLR 31/18 A2987 RMK AO2 SLP093 T03060183 $